Etusivu
METAR-TAF:

METAR-TAF

Lentoasemat :

Vuoreija, Norja

Leveyspiiri: 70-21N, Pituuspiiri: 031-03E, korkeus merenpinnasta: 12 m

Tämänhetkinen sää

Tämä raportti tehtiin 36 minuuttia sitten, kello 14.50 UTC
Tuuli 6 kn koillisesta
Lämpötila 7°C
Kosteus 100%
Ilmanpaine 994 hPa
Näkyvyys: 1000 m
sumua

METAR: ENSS 201450Z 05006KT 1000 FG VV002 07/07 Q0994 RMK WIND 500FT 05013KT

Aika: 17:26 (15:26 UTC)


TAF: puuttuu

Säähavainnot ja -ennusteet yli 4000 lentoasemalta (METAR- ja TAF-raportit).

Käytössä olevat sääasemat on merkitty karttaan keltaisilla ja punaisilla pisteillä.

Aseta hiiri pisteen päälle nähdäksesi sääaseman nimen.

Klikkaa sitten nähdäksesi säähavainnot ja -ennusteet.

Kartan vaihtaminen: klikkaa mustalla rastilla varustettuja vihreitä pisteitä, niin voit zoomata sisään; viivalla varustettua vihreää pistettä, niin voit zoomata ulos tai vihreitä nuolia, niin pääset viereisille kartoille.


METAR-TAF: